Terminal Aerodrome Forecast
Issued by NWS Lake Charles, LA

Current Version | Previous Version | Text Only | Print | Product List | Glossary On
Versions: 1 2 3 4 5 6 7 8 9 10 11 12 13 14 15 16 17
000
FTUS44 KLCH 211240 AAA
TAFAEX
TAF AMD
KAEX 211240Z 2113/2212 VRB03KT P6SM FEW006
     FM211500 VRB05KT P6SM SCT030
     FM220000 VRB03KT P6SM FEW250=

USA.gov is the U.S. government's official web portal to all federal, state and local government web resources and services.